sensor_id;sensor_type;location;lat;lon;timestamp;P1;durP1;ratioP1;P2;durP2;ratioP2
33862;SDS011;20158;51.436;-2.742;2022-09-09T00:01:07;3.85;;;1.65;;
33862;SDS011;20158;51.436;-2.742;2022-09-09T00:04:09;2.15;;;1.40;;
33862;SDS011;20158;51.436;-2.742;2022-09-09T00:06:45;4.35;;;1.63;;
33862;SDS011;20158;51.436;-2.742;2022-09-09T00:09:21;3.45;;;1.58;;
33862;SDS011;20158;51.436;-2.742;2022-09-09T00:11:52;2.78;;;1.58;;
33862;SDS011;20158;51.436;-2.742;2022-09-09T00:14:34;3.65;;;1.88;;
33862;SDS011;20158;51.436;-2.742;2022-09-09T00:17:57;3.45;;;1.67;;
33862;SDS011;20158;51.436;-2.742;2022-09-09T00:22:53;1.92;;;1.20;;
33862;SDS011;20158;51.436;-2.742;2022-09-09T00:25:28;2.97;;;1.40;;
33862;SDS011;20158;51.436;-2.742;2022-09-09T00:27:59;1.88;;;1.60;;
33862;SDS011;20158;51.436;-2.742;2022-09-09T00:30:27;3.50;;;1.60;;
33862;SDS011;20158;51.436;-2.742;2022-09-09T00:32:59;3.15;;;1.45;;
33862;SDS011;20158;51.436;-2.742;2022-09-09T00:38:09;2.30;;;1.30;;
33862;SDS011;20158;51.436;-2.742;2022-09-09T00:40:58;2.42;;;1.60;;
33862;SDS011;20158;51.436;-2.742;2022-09-09T00:43:37;2.92;;;1.20;;
33862;SDS011;20158;51.436;-2.742;2022-09-09T00:46:11;2.17;;;1.45;;
33862;SDS011;20158;51.436;-2.742;2022-09-09T00:57:25;1.98;;;0.93;;
33862;SDS011;20158;51.436;-2.742;2022-09-09T00:59:58;2.45;;;1.20;;
33862;SDS011;20158;51.436;-2.742;2022-09-09T01:02:26;1.48;;;0.85;;
33862;SDS011;20158;51.436;-2.742;2022-09-09T01:04:56;2.85;;;1.33;;
33862;SDS011;20158;51.436;-2.742;2022-09-09T01:07:30;2.97;;;1.10;;
33862;SDS011;20158;51.436;-2.742;2022-09-09T01:09:58;1.77;;;1.08;;
33862;SDS011;20158;51.436;-2.742;2022-09-09T01:15:12;2.03;;;1.50;;
33862;SDS011;20158;51.436;-2.742;2022-09-09T01:17:53;1.33;;;1.23;;
33862;SDS011;20158;51.436;-2.742;2022-09-09T01:21:13;2.63;;;1.00;;
33862;SDS011;20158;51.436;-2.742;2022-09-09T01:23:30;2.80;;;1.55;;
33862;SDS011;20158;51.436;-2.742;2022-09-09T01:26:32;2.00;;;1.25;;
33862;SDS011;20158;51.436;-2.742;2022-09-09T01:29:10;2.75;;;1.10;;
33862;SDS011;20158;51.436;-2.742;2022-09-09T01:31:42;1.20;;;0.90;;
33862;SDS011;20158;51.436;-2.742;2022-09-09T01:34:23;2.00;;;1.10;;
33862;SDS011;20158;51.436;-2.742;2022-09-09T01:36:56;1.02;;;0.90;;
33862;SDS011;20158;51.436;-2.742;2022-09-09T01:39:36;1.75;;;1.30;;
33862;SDS011;20158;51.436;-2.742;2022-09-09T01:42:08;1.35;;;1.13;;
33862;SDS011;20158;51.436;-2.742;2022-09-09T01:44:36;1.00;;;0.88;;
33862;SDS011;20158;51.436;-2.742;2022-09-09T01:47:04;1.83;;;1.35;;
33862;SDS011;20158;51.436;-2.742;2022-09-09T01:49:32;2.78;;;1.08;;
33862;SDS011;20158;51.436;-2.742;2022-09-09T01:52:02;1.67;;;0.80;;
33862;SDS011;20158;51.436;-2.742;2022-09-09T01:54:35;1.40;;;0.70;;
33862;SDS011;20158;51.436;-2.742;2022-09-09T01:57:12;1.30;;;1.00;;
33862;SDS011;20158;51.436;-2.742;2022-09-09T02:02:44;2.17;;;1.30;;
33862;SDS011;20158;51.436;-2.742;2022-09-09T02:06:08;1.95;;;0.90;;
33862;SDS011;20158;51.436;-2.742;2022-09-09T02:11:19;1.73;;;1.00;;
33862;SDS011;20158;51.436;-2.742;2022-09-09T02:14:23;1.70;;;0.80;;
33862;SDS011;20158;51.436;-2.742;2022-09-09T02:16:58;1.25;;;0.70;;
33862;SDS011;20158;51.436;-2.742;2022-09-09T02:19:46;0.65;;;0.65;;
33862;SDS011;20158;51.436;-2.742;2022-09-09T02:22:23;1.50;;;0.77;;
33862;SDS011;20158;51.436;-2.742;2022-09-09T02:24:52;1.70;;;0.90;;
33862;SDS011;20158;51.436;-2.742;2022-09-09T02:27:24;1.25;;;1.00;;
33862;SDS011;20158;51.436;-2.742;2022-09-09T02:29:51;3.95;;;1.20;;
33862;SDS011;20158;51.436;-2.742;2022-09-09T02:32:32;2.17;;;1.13;;
33862;SDS011;20158;51.436;-2.742;2022-09-09T02:35:15;1.52;;;0.77;;
33862;SDS011;20158;51.436;-2.742;2022-09-09T02:37:45;3.67;;;1.00;;
33862;SDS011;20158;51.436;-2.742;2022-09-09T02:40:16;2.33;;;0.70;;
33862;SDS011;20158;51.436;-2.742;2022-09-09T02:42:47;0.95;;;0.88;;
33862;SDS011;20158;51.436;-2.742;2022-09-09T02:45:23;1.23;;;0.88;;
33862;SDS011;20158;51.436;-2.742;2022-09-09T02:48:00;2.90;;;1.40;;
33862;SDS011;20158;51.436;-2.742;2022-09-09T02:53:24;1.45;;;0.77;;
33862;SDS011;20158;51.436;-2.742;2022-09-09T02:55:58;2.08;;;0.82;;
33862;SDS011;20158;51.436;-2.742;2022-09-09T02:58:31;1.20;;;0.60;;
33862;SDS011;20158;51.436;-2.742;2022-09-09T03:01:02;2.00;;;0.73;;
33862;SDS011;20158;51.436;-2.742;2022-09-09T03:03:29;1.60;;;1.02;;
33862;SDS011;20158;51.436;-2.742;2022-09-09T03:05:58;1.30;;;0.77;;
33862;SDS011;20158;51.436;-2.742;2022-09-09T03:08:26;2.42;;;0.80;;
33862;SDS011;20158;51.436;-2.742;2022-09-09T03:10:58;0.98;;;0.70;;
33862;SDS011;20158;51.436;-2.742;2022-09-09T03:13:27;0.82;;;0.70;;
33862;SDS011;20158;51.436;-2.742;2022-09-09T03:15:53;2.30;;;0.77;;
33862;SDS011;20158;51.436;-2.742;2022-09-09T03:18:20;1.58;;;0.80;;
33862;SDS011;20158;51.436;-2.742;2022-09-09T03:20:49;0.98;;;0.88;;
33862;SDS011;20158;51.436;-2.742;2022-09-09T03:23:16;0.88;;;0.57;;
33862;SDS011;20158;51.436;-2.742;2022-09-09T03:25:47;1.08;;;0.70;;
33862;SDS011;20158;51.436;-2.742;2022-09-09T03:28:22;3.35;;;0.90;;
33862;SDS011;20158;51.436;-2.742;2022-09-09T03:30:50;1.25;;;0.90;;
33862;SDS011;20158;51.436;-2.742;2022-09-09T03:33:18;2.17;;;1.20;;
33862;SDS011;20158;51.436;-2.742;2022-09-09T03:35:46;1.25;;;0.65;;
33862;SDS011;20158;51.436;-2.742;2022-09-09T03:38:18;1.55;;;0.80;;
33862;SDS011;20158;51.436;-2.742;2022-09-09T03:40:50;1.25;;;0.73;;
33862;SDS011;20158;51.436;-2.742;2022-09-09T03:43:21;1.65;;;0.95;;
33862;SDS011;20158;51.436;-2.742;2022-09-09T03:45:50;1.58;;;0.88;;
33862;SDS011;20158;51.436;-2.742;2022-09-09T03:48:17;1.98;;;0.90;;
33862;SDS011;20158;51.436;-2.742;2022-09-09T03:50:46;3.80;;;1.40;;
33862;SDS011;20158;51.436;-2.742;2022-09-09T03:53:13;2.00;;;0.90;;
33862;SDS011;20158;51.436;-2.742;2022-09-09T03:55:44;1.67;;;0.93;;
33862;SDS011;20158;51.436;-2.742;2022-09-09T03:58:12;2.97;;;1.58;;
33862;SDS011;20158;51.436;-2.742;2022-09-09T04:00:39;1.48;;;1.08;;
33862;SDS011;20158;51.436;-2.742;2022-09-09T04:03:08;2.58;;;0.80;;
33862;SDS011;20158;51.436;-2.742;2022-09-09T04:05:35;1.20;;;0.90;;
33862;SDS011;20158;51.436;-2.742;2022-09-09T04:08:08;2.25;;;1.30;;
33862;SDS011;20158;51.436;-2.742;2022-09-09T04:10:34;2.72;;;0.98;;
33862;SDS011;20158;51.436;-2.742;2022-09-09T04:13:04;2.38;;;0.90;;
33862;SDS011;20158;51.436;-2.742;2022-09-09T04:15:30;2.80;;;1.02;;
33862;SDS011;20158;51.436;-2.742;2022-09-09T04:17:57;1.90;;;1.20;;
33862;SDS011;20158;51.436;-2.742;2022-09-09T04:20:23;2.42;;;1.00;;
33862;SDS011;20158;51.436;-2.742;2022-09-09T04:22:49;1.45;;;0.95;;
33862;SDS011;20158;51.436;-2.742;2022-09-09T04:25:15;3.47;;;1.10;;
33862;SDS011;20158;51.436;-2.742;2022-09-09T04:27:41;1.85;;;1.00;;
33862;SDS011;20158;51.436;-2.742;2022-09-09T04:30:08;2.33;;;1.13;;
33862;SDS011;20158;51.436;-2.742;2022-09-09T04:32:36;1.40;;;0.75;;
33862;SDS011;20158;51.436;-2.742;2022-09-09T04:35:02;1.83;;;1.00;;
33862;SDS011;20158;51.436;-2.742;2022-09-09T04:37:29;1.42;;;1.08;;
33862;SDS011;20158;51.436;-2.742;2022-09-09T04:39:55;2.83;;;1.17;;
33862;SDS011;20158;51.436;-2.742;2022-09-09T04:42:21;3.03;;;1.08;;
33862;SDS011;20158;51.436;-2.742;2022-09-09T04:44:48;2.35;;;1.08;;
33862;SDS011;20158;51.436;-2.742;2022-09-09T04:47:15;5.40;;;1.95;;
33862;SDS011;20158;51.436;-2.742;2022-09-09T04:49:41;1.17;;;0.60;;
33862;SDS011;20158;51.436;-2.742;2022-09-09T04:52:07;1.77;;;0.90;;
33862;SDS011;20158;51.436;-2.742;2022-09-09T04:54:34;1.45;;;0.80;;
33862;SDS011;20158;51.436;-2.742;2022-09-09T04:57:00;1.13;;;0.77;;
33862;SDS011;20158;51.436;-2.742;2022-09-09T04:59:27;1.75;;;0.80;;
33862;SDS011;20158;51.436;-2.742;2022-09-09T05:01:56;3.65;;;0.73;;
33862;SDS011;20158;51.436;-2.742;2022-09-09T05:04:22;2.30;;;0.75;;
33862;SDS011;20158;51.436;-2.742;2022-09-09T05:06:48;2.85;;;1.20;;
33862;SDS011;20158;51.436;-2.742;2022-09-09T05:09:14;2.35;;;0.93;;
33862;SDS011;20158;51.436;-2.742;2022-09-09T05:11:40;2.28;;;0.60;;
33862;SDS011;20158;51.436;-2.742;2022-09-09T05:14:14;2.17;;;1.20;;
33862;SDS011;20158;51.436;-2.742;2022-09-09T05:16:40;2.58;;;0.95;;
33862;SDS011;20158;51.436;-2.742;2022-09-09T05:19:07;4.20;;;1.73;;
33862;SDS011;20158;51.436;-2.742;2022-09-09T05:21:42;0.98;;;0.70;;
33862;SDS011;20158;51.436;-2.742;2022-09-09T05:24:09;1.83;;;0.85;;
33862;SDS011;20158;51.436;-2.742;2022-09-09T05:26:35;3.00;;;1.10;;
33862;SDS011;20158;51.436;-2.742;2022-09-09T05:29:02;2.10;;;0.80;;
33862;SDS011;20158;51.436;-2.742;2022-09-09T05:31:30;4.15;;;1.35;;
33862;SDS011;20158;51.436;-2.742;2022-09-09T05:33:57;1.05;;;0.77;;
33862;SDS011;20158;51.436;-2.742;2022-09-09T05:36:24;1.55;;;0.75;;
33862;SDS011;20158;51.436;-2.742;2022-09-09T05:38:54;1.42;;;0.90;;
33862;SDS011;20158;51.436;-2.742;2022-09-09T05:41:20;1.92;;;1.00;;
33862;SDS011;20158;51.436;-2.742;2022-09-09T05:43:48;3.05;;;1.00;;
33862;SDS011;20158;51.436;-2.742;2022-09-09T05:46:16;3.38;;;0.70;;
33862;SDS011;20158;51.436;-2.742;2022-09-09T05:48:46;4.30;;;1.00;;
33862;SDS011;20158;51.436;-2.742;2022-09-09T05:51:16;5.75;;;2.15;;
33862;SDS011;20158;51.436;-2.742;2022-09-09T05:53:46;1.15;;;1.00;;
33862;SDS011;20158;51.436;-2.742;2022-09-09T05:56:14;2.42;;;0.95;;
33862;SDS011;20158;51.436;-2.742;2022-09-09T05:58:45;2.97;;;0.97;;
33862;SDS011;20158;51.436;-2.742;2022-09-09T06:01:17;3.40;;;1.30;;
33862;SDS011;20158;51.436;-2.742;2022-09-09T06:03:46;4.22;;;0.90;;
33862;SDS011;20158;51.436;-2.742;2022-09-09T06:06:15;3.42;;;0.90;;
33862;SDS011;20158;51.436;-2.742;2022-09-09T06:08:53;2.60;;;0.88;;
33862;SDS011;20158;51.436;-2.742;2022-09-09T06:11:24;1.38;;;1.13;;
33862;SDS011;20158;51.436;-2.742;2022-09-09T06:13:52;2.42;;;1.10;;
33862;SDS011;20158;51.436;-2.742;2022-09-09T06:16:20;4.60;;;1.13;;
33862;SDS011;20158;51.436;-2.742;2022-09-09T06:18:52;1.92;;;0.85;;
33862;SDS011;20158;51.436;-2.742;2022-09-09T06:21:24;2.47;;;1.10;;
33862;SDS011;20158;51.436;-2.742;2022-09-09T06:23:51;3.35;;;1.08;;
33862;SDS011;20158;51.436;-2.742;2022-09-09T06:26:20;3.00;;;1.08;;
33862;SDS011;20158;51.436;-2.742;2022-09-09T06:28:49;2.67;;;1.05;;
33862;SDS011;20158;51.436;-2.742;2022-09-09T06:31:19;3.08;;;1.13;;
33862;SDS011;20158;51.436;-2.742;2022-09-09T06:33:50;2.42;;;1.05;;
33862;SDS011;20158;51.436;-2.742;2022-09-09T06:36:19;2.53;;;1.10;;
33862;SDS011;20158;51.436;-2.742;2022-09-09T06:38:47;2.60;;;1.17;;
33862;SDS011;20158;51.436;-2.742;2022-09-09T06:41:14;4.82;;;1.40;;
33862;SDS011;20158;51.436;-2.742;2022-09-09T06:43:44;2.60;;;0.90;;
33862;SDS011;20158;51.436;-2.742;2022-09-09T06:46:12;4.10;;;2.53;;
33862;SDS011;20158;51.436;-2.742;2022-09-09T06:48:39;2.20;;;1.13;;
33862;SDS011;20158;51.436;-2.742;2022-09-09T06:51:12;3.97;;;1.90;;
33862;SDS011;20158;51.436;-2.742;2022-09-09T06:53:43;3.78;;;1.70;;
33862;SDS011;20158;51.436;-2.742;2022-09-09T06:56:19;4.13;;;1.27;;
33862;SDS011;20158;51.436;-2.742;2022-09-09T06:58:50;2.45;;;1.23;;
33862;SDS011;20158;51.436;-2.742;2022-09-09T07:01:23;3.50;;;1.23;;
33862;SDS011;20158;51.436;-2.742;2022-09-09T07:03:52;3.55;;;1.40;;
33862;SDS011;20158;51.436;-2.742;2022-09-09T07:06:24;2.72;;;1.40;;
33862;SDS011;20158;51.436;-2.742;2022-09-09T07:08:51;5.00;;;1.42;;
33862;SDS011;20158;51.436;-2.742;2022-09-09T07:11:19;2.75;;;1.00;;
33862;SDS011;20158;51.436;-2.742;2022-09-09T07:13:47;2.90;;;1.38;;
33862;SDS011;20158;51.436;-2.742;2022-09-09T07:16:15;3.58;;;1.27;;
33862;SDS011;20158;51.436;-2.742;2022-09-09T07:18:43;1.50;;;0.90;;
33862;SDS011;20158;51.436;-2.742;2022-09-09T07:21:09;2.53;;;1.35;;
33862;SDS011;20158;51.436;-2.742;2022-09-09T07:23:40;5.18;;;1.80;;
33862;SDS011;20158;51.436;-2.742;2022-09-09T07:26:10;3.25;;;1.05;;
33862;SDS011;20158;51.436;-2.742;2022-09-09T07:28:42;2.60;;;1.00;;
33862;SDS011;20158;51.436;-2.742;2022-09-09T07:31:18;2.50;;;1.50;;
33862;SDS011;20158;51.436;-2.742;2022-09-09T07:33:46;2.63;;;1.20;;
33862;SDS011;20158;51.436;-2.742;2022-09-09T07:36:14;2.65;;;0.85;;
33862;SDS011;20158;51.436;-2.742;2022-09-09T07:38:44;1.23;;;1.00;;
33862;SDS011;20158;51.436;-2.742;2022-09-09T07:41:22;2.63;;;1.00;;
33862;SDS011;20158;51.436;-2.742;2022-09-09T07:44:03;4.63;;;1.48;;
33862;SDS011;20158;51.436;-2.742;2022-09-09T07:46:32;2.65;;;1.10;;
33862;SDS011;20158;51.436;-2.742;2022-09-09T07:49:00;3.22;;;1.48;;
33862;SDS011;20158;51.436;-2.742;2022-09-09T07:51:34;2.70;;;1.10;;
33862;SDS011;20158;51.436;-2.742;2022-09-09T07:54:02;3.33;;;1.25;;
33862;SDS011;20158;51.436;-2.742;2022-09-09T07:56:31;4.65;;;1.23;;
33862;SDS011;20158;51.436;-2.742;2022-09-09T07:58:58;2.67;;;1.58;;
33862;SDS011;20158;51.436;-2.742;2022-09-09T08:01:26;1.92;;;1.23;;
33862;SDS011;20158;51.436;-2.742;2022-09-09T08:03:57;2.00;;;1.23;;
33862;SDS011;20158;51.436;-2.742;2022-09-09T08:06:30;3.75;;;1.73;;
33862;SDS011;20158;51.436;-2.742;2022-09-09T08:09:02;2.30;;;0.95;;
33862;SDS011;20158;51.436;-2.742;2022-09-09T08:11:30;1.60;;;0.90;;
33862;SDS011;20158;51.436;-2.742;2022-09-09T08:13:58;2.40;;;0.88;;
33862;SDS011;20158;51.436;-2.742;2022-09-09T08:16:26;1.70;;;0.60;;
33862;SDS011;20158;51.436;-2.742;2022-09-09T08:18:56;1.90;;;0.98;;
33862;SDS011;20158;51.436;-2.742;2022-09-09T08:21:24;2.78;;;1.35;;
33862;SDS011;20158;51.436;-2.742;2022-09-09T08:23:54;1.92;;;0.82;;
33862;SDS011;20158;51.436;-2.742;2022-09-09T08:26:22;1.92;;;1.17;;
33862;SDS011;20158;51.436;-2.742;2022-09-09T08:28:54;2.77;;;1.03;;
33862;SDS011;20158;51.436;-2.742;2022-09-09T08:33:51;2.00;;;1.17;;
33862;SDS011;20158;51.436;-2.742;2022-09-09T08:36:18;2.78;;;1.00;;
33862;SDS011;20158;51.436;-2.742;2022-09-09T08:38:50;1.40;;;0.80;;
33862;SDS011;20158;51.436;-2.742;2022-09-09T08:52:02;1.53;;;0.60;;
33862;SDS011;20158;51.436;-2.742;2022-09-09T08:54:34;1.20;;;0.80;;
33862;SDS011;20158;51.436;-2.742;2022-09-09T08:57:02;1.95;;;0.80;;
33862;SDS011;20158;51.436;-2.742;2022-09-09T08:59:32;1.88;;;0.70;;
33862;SDS011;20158;51.436;-2.742;2022-09-09T09:10:48;2.42;;;0.98;;
33862;SDS011;20158;51.436;-2.742;2022-09-09T09:16:00;2.65;;;1.17;;
33862;SDS011;20158;51.436;-2.742;2022-09-09T09:18:36;1.30;;;0.70;;
33862;SDS011;20158;51.436;-2.742;2022-09-09T09:23:35;1.88;;;0.80;;
33862;SDS011;20158;51.436;-2.742;2022-09-09T09:26:18;1.92;;;1.13;;
33862;SDS011;20158;51.436;-2.742;2022-09-09T09:28:45;1.88;;;0.88;;
33862;SDS011;20158;51.436;-2.742;2022-09-09T09:31:15;1.27;;;0.88;;
33862;SDS011;20158;51.436;-2.742;2022-09-09T09:33:51;1.23;;;0.60;;
33862;SDS011;20158;51.436;-2.742;2022-09-09T09:36:23;1.02;;;0.60;;
33862;SDS011;20158;51.436;-2.742;2022-09-09T09:39:00;1.48;;;0.90;;
33862;SDS011;20158;51.436;-2.742;2022-09-09T09:41:32;2.15;;;0.70;;
33862;SDS011;20158;51.436;-2.742;2022-09-09T09:43:59;1.80;;;0.70;;
33862;SDS011;20158;51.436;-2.742;2022-09-09T09:46:27;1.67;;;0.50;;
33862;SDS011;20158;51.436;-2.742;2022-09-09T09:49:02;1.23;;;0.80;;
33862;SDS011;20158;51.436;-2.742;2022-09-09T09:51:31;1.52;;;0.60;;
33862;SDS011;20158;51.436;-2.742;2022-09-09T09:54:03;1.02;;;0.60;;
33862;SDS011;20158;51.436;-2.742;2022-09-09T09:56:40;1.02;;;0.50;;
33862;SDS011;20158;51.436;-2.742;2022-09-09T09:59:59;0.95;;;0.60;;
33862;SDS011;20158;51.436;-2.742;2022-09-09T10:05:06;1.92;;;0.50;;
33862;SDS011;20158;51.436;-2.742;2022-09-09T10:08:18;1.63;;;0.60;;
33862;SDS011;20158;51.436;-2.742;2022-09-09T10:10:48;1.20;;;0.50;;
33862;SDS011;20158;51.436;-2.742;2022-09-09T10:13:23;3.75;;;1.10;;
33862;SDS011;20158;51.436;-2.742;2022-09-09T10:16:04;1.00;;;0.50;;
33862;SDS011;20158;51.436;-2.742;2022-09-09T10:30:38;2.55;;;0.82;;
33862;SDS011;20158;51.436;-2.742;2022-09-09T10:33:32;2.35;;;0.90;;
33862;SDS011;20158;51.436;-2.742;2022-09-09T10:36:20;1.02;;;0.50;;
33862;SDS011;20158;51.436;-2.742;2022-09-09T10:38:58;1.45;;;0.82;;
33862;SDS011;20158;51.436;-2.742;2022-09-09T10:49:15;1.73;;;0.82;;
33862;SDS011;20158;51.436;-2.742;2022-09-09T10:54:56;3.53;;;1.10;;
33862;SDS011;20158;51.436;-2.742;2022-09-09T10:57:33;2.88;;;1.25;;
33862;SDS011;20158;51.436;-2.742;2022-09-09T11:02:47;1.55;;;0.75;;
33862;SDS011;20158;51.436;-2.742;2022-09-09T11:05:21;0.70;;;0.60;;
33862;SDS011;20158;51.436;-2.742;2022-09-09T11:07:57;1.63;;;0.80;;
33862;SDS011;20158;51.436;-2.742;2022-09-09T11:13:13;1.58;;;0.60;;
33862;SDS011;20158;51.436;-2.742;2022-09-09T11:16:15;1.35;;;0.80;;
33862;SDS011;20158;51.436;-2.742;2022-09-09T11:22:17;1.80;;;0.80;;
33862;SDS011;20158;51.436;-2.742;2022-09-09T11:25:17;2.60;;;0.82;;
33862;SDS011;20158;51.436;-2.742;2022-09-09T11:30:38;1.17;;;0.70;;
33862;SDS011;20158;51.436;-2.742;2022-09-09T11:33:12;2.90;;;0.90;;
33862;SDS011;20158;51.436;-2.742;2022-09-09T11:43:44;3.00;;;1.50;;
33862;SDS011;20158;51.436;-2.742;2022-09-09T11:46:12;4.55;;;1.00;;
33862;SDS011;20158;51.436;-2.742;2022-09-09T11:48:41;2.03;;;1.13;;
33862;SDS011;20158;51.436;-2.742;2022-09-09T11:56:50;2.03;;;0.85;;
33862;SDS011;20158;51.436;-2.742;2022-09-09T11:59:24;3.72;;;0.90;;
33862;SDS011;20158;51.436;-2.742;2022-09-09T12:07:36;3.85;;;1.65;;
33862;SDS011;20158;51.436;-2.742;2022-09-09T12:09:44;1.48;;;0.95;;
33862;SDS011;20158;51.436;-2.742;2022-09-09T12:12:25;1.48;;;0.93;;
33862;SDS011;20158;51.436;-2.742;2022-09-09T12:28:06;2.40;;;1.20;;
33862;SDS011;20158;51.436;-2.742;2022-09-09T12:33:12;2.88;;;1.10;;
33862;SDS011;20158;51.436;-2.742;2022-09-09T12:35:42;1.58;;;0.75;;
33862;SDS011;20158;51.436;-2.742;2022-09-09T12:38:15;3.00;;;1.10;;
33862;SDS011;20158;51.436;-2.742;2022-09-09T12:40:56;1.73;;;1.25;;
33862;SDS011;20158;51.436;-2.742;2022-09-09T12:43:23;2.70;;;0.90;;
33862;SDS011;20158;51.436;-2.742;2022-09-09T12:45:51;2.83;;;0.88;;
33862;SDS011;20158;51.436;-2.742;2022-09-09T12:48:25;1.17;;;0.70;;
33862;SDS011;20158;51.436;-2.742;2022-09-09T12:51:05;1.88;;;1.00;;
33862;SDS011;20158;51.436;-2.742;2022-09-09T12:53:41;1.75;;;1.05;;
33862;SDS011;20158;51.436;-2.742;2022-09-09T12:56:08;1.83;;;0.88;;
33862;SDS011;20158;51.436;-2.742;2022-09-09T12:58:45;3.20;;;1.55;;
33862;SDS011;20158;51.436;-2.742;2022-09-09T13:01:30;3.88;;;1.33;;
33862;SDS011;20158;51.436;-2.742;2022-09-09T13:03:58;1.75;;;0.90;;
33862;SDS011;20158;51.436;-2.742;2022-09-09T13:06:28;4.03;;;1.55;;
33862;SDS011;20158;51.436;-2.742;2022-09-09T13:08:58;1.45;;;0.90;;
33862;SDS011;20158;51.436;-2.742;2022-09-09T13:12:09;1.75;;;1.15;;
33862;SDS011;20158;51.436;-2.742;2022-09-09T13:14:18;2.77;;;1.20;;
33862;SDS011;20158;51.436;-2.742;2022-09-09T13:16:58;1.58;;;0.80;;
33862;SDS011;20158;51.436;-2.742;2022-09-09T13:19:25;1.60;;;0.88;;
33862;SDS011;20158;51.436;-2.742;2022-09-09T13:21:54;3.42;;;1.00;;
33862;SDS011;20158;51.436;-2.742;2022-09-09T13:24:33;1.60;;;1.10;;
33862;SDS011;20158;51.436;-2.742;2022-09-09T13:27:04;2.65;;;0.90;;
33862;SDS011;20158;51.436;-2.742;2022-09-09T13:29:51;2.03;;;1.10;;
33862;SDS011;20158;51.436;-2.742;2022-09-09T13:32:22;4.03;;;1.35;;
33862;SDS011;20158;51.436;-2.742;2022-09-09T13:37:27;1.52;;;0.93;;
33862;SDS011;20158;51.436;-2.742;2022-09-09T13:40:00;2.90;;;1.38;;
33862;SDS011;20158;51.436;-2.742;2022-09-09T13:42:31;1.58;;;1.00;;
33862;SDS011;20158;51.436;-2.742;2022-09-09T13:45:03;1.10;;;0.90;;
33862;SDS011;20158;51.436;-2.742;2022-09-09T13:47:33;1.35;;;1.10;;
33862;SDS011;20158;51.436;-2.742;2022-09-09T13:52:53;1.83;;;1.27;;
33862;SDS011;20158;51.436;-2.742;2022-09-09T13:55:20;1.63;;;1.40;;
33862;SDS011;20158;51.436;-2.742;2022-09-09T13:57:55;2.10;;;1.27;;
33862;SDS011;20158;51.436;-2.742;2022-09-09T14:00:22;1.65;;;1.25;;
33862;SDS011;20158;51.436;-2.742;2022-09-09T14:02:49;3.08;;;0.98;;
33862;SDS011;20158;51.436;-2.742;2022-09-09T14:05:15;2.30;;;1.10;;
33862;SDS011;20158;51.436;-2.742;2022-09-09T14:07:43;2.30;;;1.00;;
33862;SDS011;20158;51.436;-2.742;2022-09-09T14:10:10;1.98;;;0.98;;
33862;SDS011;20158;51.436;-2.742;2022-09-09T14:12:37;1.58;;;0.80;;
33862;SDS011;20158;51.436;-2.742;2022-09-09T14:15:04;2.20;;;1.20;;
33862;SDS011;20158;51.436;-2.742;2022-09-09T14:17:30;2.88;;;1.10;;
33862;SDS011;20158;51.436;-2.742;2022-09-09T14:19:57;2.65;;;1.02;;
33862;SDS011;20158;51.436;-2.742;2022-09-09T14:22:23;2.63;;;1.00;;
33862;SDS011;20158;51.436;-2.742;2022-09-09T14:24:49;2.45;;;1.13;;
33862;SDS011;20158;51.436;-2.742;2022-09-09T14:27:16;1.10;;;0.90;;
33862;SDS011;20158;51.436;-2.742;2022-09-09T14:29:42;2.65;;;1.20;;
33862;SDS011;20158;51.436;-2.742;2022-09-09T14:32:09;1.10;;;0.90;;
33862;SDS011;20158;51.436;-2.742;2022-09-09T14:34:36;1.95;;;1.13;;
33862;SDS011;20158;51.436;-2.742;2022-09-09T14:37:02;1.92;;;0.98;;
33862;SDS011;20158;51.436;-2.742;2022-09-09T14:39:28;2.80;;;1.00;;
33862;SDS011;20158;51.436;-2.742;2022-09-09T14:41:53;1.08;;;0.73;;
33862;SDS011;20158;51.436;-2.742;2022-09-09T14:44:20;1.60;;;0.98;;
33862;SDS011;20158;51.436;-2.742;2022-09-09T14:46:47;1.50;;;0.70;;
33862;SDS011;20158;51.436;-2.742;2022-09-09T14:49:15;2.70;;;1.10;;
33862;SDS011;20158;51.436;-2.742;2022-09-09T14:51:41;1.20;;;0.70;;
33862;SDS011;20158;51.436;-2.742;2022-09-09T14:54:07;2.20;;;1.15;;
33862;SDS011;20158;51.436;-2.742;2022-09-09T14:56:33;1.17;;;0.80;;
33862;SDS011;20158;51.436;-2.742;2022-09-09T14:59:00;1.35;;;0.80;;
33862;SDS011;20158;51.436;-2.742;2022-09-09T15:01:26;1.30;;;0.90;;
33862;SDS011;20158;51.436;-2.742;2022-09-09T15:03:54;2.42;;;1.08;;
33862;SDS011;20158;51.436;-2.742;2022-09-09T15:06:23;0.60;;;0.50;;
33862;SDS011;20158;51.436;-2.742;2022-09-09T15:08:51;2.45;;;0.88;;
33862;SDS011;20158;51.436;-2.742;2022-09-09T15:11:18;1.00;;;0.60;;
33862;SDS011;20158;51.436;-2.742;2022-09-09T15:13:45;1.42;;;0.80;;
33862;SDS011;20158;51.436;-2.742;2022-09-09T15:16:16;2.70;;;0.77;;
33862;SDS011;20158;51.436;-2.742;2022-09-09T15:18:44;2.58;;;1.00;;
33862;SDS011;20158;51.436;-2.742;2022-09-09T15:21:15;2.70;;;1.38;;
33862;SDS011;20158;51.436;-2.742;2022-09-09T15:23:44;1.52;;;0.60;;
33862;SDS011;20158;51.436;-2.742;2022-09-09T15:26:11;1.63;;;0.70;;
33862;SDS011;20158;51.436;-2.742;2022-09-09T15:28:40;1.58;;;0.80;;
33862;SDS011;20158;51.436;-2.742;2022-09-09T15:33:48;1.48;;;0.77;;
33862;SDS011;20158;51.436;-2.742;2022-09-09T15:36:19;1.52;;;0.73;;
33862;SDS011;20158;51.436;-2.742;2022-09-09T15:38:50;1.03;;;0.67;;
33862;SDS011;20158;51.436;-2.742;2022-09-09T15:41:17;1.05;;;0.52;;
33862;SDS011;20158;51.436;-2.742;2022-09-09T15:43:49;1.83;;;0.88;;
33862;SDS011;20158;51.436;-2.742;2022-09-09T15:48:44;3.53;;;0.65;;
33862;SDS011;20158;51.436;-2.742;2022-09-09T15:51:10;2.15;;;0.75;;
33862;SDS011;20158;51.436;-2.742;2022-09-09T15:53:37;1.17;;;0.88;;
33862;SDS011;20158;51.436;-2.742;2022-09-09T15:56:04;0.85;;;0.52;;
33862;SDS011;20158;51.436;-2.742;2022-09-09T15:58:32;2.17;;;0.65;;
33862;SDS011;20158;51.436;-2.742;2022-09-09T16:01:05;0.88;;;0.40;;
33862;SDS011;20158;51.436;-2.742;2022-09-09T16:03:37;1.63;;;0.70;;
33862;SDS011;20158;51.436;-2.742;2022-09-09T16:06:04;1.40;;;0.60;;
33862;SDS011;20158;51.436;-2.742;2022-09-09T16:08:31;1.52;;;0.50;;
33862;SDS011;20158;51.436;-2.742;2022-09-09T16:11:03;0.68;;;0.40;;
33862;SDS011;20158;51.436;-2.742;2022-09-09T16:13:34;1.20;;;0.50;;
33862;SDS011;20158;51.436;-2.742;2022-09-09T16:16:01;1.98;;;1.10;;
33862;SDS011;20158;51.436;-2.742;2022-09-09T16:18:32;4.38;;;1.60;;
33862;SDS011;20158;51.436;-2.742;2022-09-09T16:21:02;21.80;;;4.65;;
33862;SDS011;20158;51.436;-2.742;2022-09-09T16:23:33;64.40;;;19.70;;
33862;SDS011;20158;51.436;-2.742;2022-09-09T16:26:00;59.88;;;19.13;;
33862;SDS011;20158;51.436;-2.742;2022-09-09T16:28:27;49.10;;;14.35;;
33862;SDS011;20158;51.436;-2.742;2022-09-09T16:30:54;43.47;;;15.63;;
33862;SDS011;20158;51.436;-2.742;2022-09-09T16:33:20;28.15;;;10.07;;
33862;SDS011;20158;51.436;-2.742;2022-09-09T16:35:47;34.70;;;10.77;;
33862;SDS011;20158;51.436;-2.742;2022-09-09T16:38:14;34.05;;;12.57;;
33862;SDS011;20158;51.436;-2.742;2022-09-09T16:40:40;26.55;;;8.32;;
33862;SDS011;20158;51.436;-2.742;2022-09-09T16:43:06;22.95;;;9.07;;
33862;SDS011;20158;51.436;-2.742;2022-09-09T16:45:34;31.45;;;10.85;;
33862;SDS011;20158;51.436;-2.742;2022-09-09T16:48:07;25.15;;;10.05;;
33862;SDS011;20158;51.436;-2.742;2022-09-09T16:50:33;28.48;;;9.80;;
33862;SDS011;20158;51.436;-2.742;2022-09-09T16:52:59;23.45;;;10.50;;
33862;SDS011;20158;51.436;-2.742;2022-09-09T16:55:27;24.25;;;8.45;;
33862;SDS011;20158;51.436;-2.742;2022-09-09T16:57:55;23.45;;;7.60;;
33862;SDS011;20158;51.436;-2.742;2022-09-09T17:00:21;17.05;;;6.85;;
33862;SDS011;20158;51.436;-2.742;2022-09-09T17:02:48;18.30;;;8.18;;
33862;SDS011;20158;51.436;-2.742;2022-09-09T17:05:14;13.07;;;5.82;;
33862;SDS011;20158;51.436;-2.742;2022-09-09T17:07:40;13.27;;;5.57;;
33862;SDS011;20158;51.436;-2.742;2022-09-09T17:10:06;9.30;;;3.58;;
33862;SDS011;20158;51.436;-2.742;2022-09-09T17:12:34;9.00;;;3.90;;